RJSARJSC

Guest
Details From RJSA - AOMORI
To RJSC - YAMAGATA
Flight Number -
Tags generated
Created
Modified
Stats Distance 140 nm / 260 km
Max Altitude 16,600 ft / 5,060 m
Waypoints 3
Social Downloads 0
Likes 0
Share VATSIM

Download

Looking for another format? Having issues loading an existing format? Contact us
Advertisement - Login to hide

Notes

Basic altitude profile: - Ascent Rate: 2500ft/min - Ascent Speed: 250kts - Cruise Altitude: 35000ft - Cruise Speed: 420kts - Descent Rate: 1500ft/min - Descent Speed: 250kts Options: - Use NATs: yes - Use PACOTS: yes - Use low airways: yes - Use high airways: yes

Route

RJSA WAPPA RJSC

ID Type Via Altitude Latitude Longitude Leg Dist Tot Dist Heading (true) Name
O RJSA APT - 0 ft / 0 m 40.73327˚ 140.68859˚ - 0 nm - AOMORI
WAPPA FIX - 16,600 ft / 5,060 m 39.70113˚ 140.55155˚ 62 nm 62 nm 186° / 186° -
O RJSC APT - 0 ft / 0 m 38.41190˚ 140.37133˚ 77 nm 140 nm 186° / 186° YAMAGATA

Altitude Profile

Advertisement - Login to hide

RJSA

Details ICAO RJSA (AOJ)
Name AOMORI
Region Japan
Timezone Asia/Tokyo (UTC+9.0)
Stats Elevation 664 ft / 202 m (AMSL)
Location 40.733272° 140.688594°
Runways 1
Magnetic Variation 8.960° W

METAR

RJSA 250900Z 26006KT 9999 FEW030 SCT170 BKN/// 16/09 Q1004

Decode

TAF

TAF TAF RJSA 250517Z 2506/2612 23010KT 9999 FEW010 SCT020 BKN030 TEMPO 2515/2521 4000 BR FEW005 BKN008 BKN015

Decode

Departure Runways

ID Width Length Bearing (true) Bearing (mag) Surface Threshold Offset Overrun Length
06 200 ft / 61 m 9,838 ft / 2,999 m 51.79° 60.75° Asphalt 0 ft / 0 m 200 ft / 61 m
24 200 ft / 61 m 9,838 ft / 2,999 m 231.81° 240.77° Asphalt 0 ft / 0 m 200 ft / 61 m

RJSC

Details ICAO RJSC (GAJ)
Name YAMAGATA
Region Japan
Timezone Asia/Tokyo (UTC+9.0)
Stats Elevation 353 ft / 108 m (AMSL)
Location 38.411895° 140.371330°
Runways 1
Magnetic Variation 8.282° W

METAR

RJSC 250900Z 36018KT 9999 FEW030 18/14 Q1006

Decode

TAF

Not found

Destination Runways

ID Width Length Bearing (true) Bearing (mag) Surface Threshold Offset Overrun Length
01 150 ft / 46 m 6,574 ft / 2,004 m 6.56° 14.84° Asphalt 0 ft / 0 m 200 ft / 61 m
19 150 ft / 46 m 6,574 ft / 2,004 m 186.56° 194.84° Asphalt 0 ft / 0 m 200 ft / 61 m

Approach Navaids

Runway Type Ident Frequency Range Bearing (true) Bearing (mag) Slope Elevation
01 Localiser IYT 110.10 MHz 18 nm / 33 km 6.56° 14.84° - 353 ft / 108 m (AMSL)
01 Glidescope IYT 110.10 MHz 10 nm / 19 km 6.56° 14.84° 3.00° 362 ft / 110 m (AMSL)
01 DME IYT 110.10 MHz 18 nm / 33 km - - - 362 ft / 110 m (AMSL)